createdAt,value
2023-09-07T05:00:25.414Z,68.59
2023-09-07T05:02:54.378Z,68.75
2023-09-07T05:05:23.521Z,69.01
2023-09-07T05:07:52.432Z,69.42
2023-09-07T05:10:21.394Z,69.75
2023-09-07T05:12:50.288Z,69.85
2023-09-07T05:15:19.107Z,70.62
2023-09-07T05:17:48.035Z,71.14
2023-09-07T05:20:16.968Z,71.10
2023-09-07T05:22:46.224Z,71.32
2023-09-07T05:25:15.369Z,71.70
2023-09-07T05:27:44.234Z,71.66
2023-09-07T05:30:13.394Z,71.54
2023-09-07T05:32:43.285Z,71.53
2023-09-07T05:35:13.543Z,71.71
2023-09-07T05:37:42.594Z,71.39
2023-09-07T05:40:12.916Z,71.01
2023-09-07T05:42:42.247Z,70.55
2023-09-07T05:45:11.401Z,70.03
2023-09-07T05:47:40.470Z,69.26
2023-09-07T05:50:09.982Z,68.28
2023-09-07T05:52:39.032Z,66.92
2023-09-07T05:55:08.878Z,66.26
2023-09-07T05:57:38.879Z,66.01
2023-09-07T06:00:09.122Z,66.11
2023-09-07T06:02:38.499Z,65.04
2023-09-07T06:05:10.159Z,64.40
2023-09-07T06:07:39.572Z,64.21
2023-09-07T06:10:09.248Z,63.63
2023-09-07T06:12:40.755Z,63.91
2023-09-07T06:15:12.173Z,64.18
2023-09-07T06:17:41.063Z,63.90
2023-09-07T06:20:13.118Z,63.45
2023-09-07T06:22:42.253Z,62.69
2023-09-07T06:25:11.377Z,62.46
2023-09-07T06:27:40.170Z,62.10
2023-09-07T06:30:09.939Z,61.62
2023-09-07T06:32:40.111Z,61.24
2023-09-07T06:35:09.729Z,61.94
2023-09-07T06:37:41.945Z,61.80
2023-09-07T06:40:12.414Z,62.09
2023-09-07T06:42:41.455Z,63.19
2023-09-07T06:45:11.659Z,62.72
2023-09-07T06:47:40.906Z,64.23
2023-09-07T06:50:09.964Z,64.31
2023-09-07T06:52:38.712Z,64.42
2023-09-07T06:55:08.193Z,64.41
2023-09-07T06:57:37.101Z,64.30
2023-09-07T07:00:07.096Z,64.28
2023-09-07T07:02:36.030Z,64.44
2023-09-07T07:05:05.889Z,65.82
2023-09-07T07:07:36.294Z,65.99
2023-09-07T07:10:06.453Z,67.67
2023-09-07T07:12:36.161Z,63.45
2023-09-07T07:15:06.931Z,61.25
2023-09-07T07:17:35.836Z,61.03
2023-09-07T07:20:05.277Z,61.81
2023-09-07T07:22:36.720Z,61.83
2023-09-07T07:25:08.989Z,62.09
2023-09-07T07:27:37.921Z,61.35
2023-09-07T07:30:07.847Z,60.92
2023-09-07T07:32:36.969Z,61.35
2023-09-07T07:35:06.310Z,61.80
2023-09-07T07:37:35.133Z,62.69
2023-09-07T07:40:04.333Z,62.95
2023-09-07T07:42:34.026Z,62.62
2023-09-07T07:45:02.803Z,61.55
2023-09-07T07:47:31.610Z,60.32
2023-09-07T07:50:00.425Z,61.55
2023-09-07T07:52:29.347Z,60.83
2023-09-07T07:54:58.208Z,61.04
2023-09-07T07:57:27.097Z,61.84
2023-09-07T07:59:57.965Z,61.62
2023-09-07T08:02:26.849Z,61.29
2023-09-07T08:04:55.927Z,61.37
2023-09-07T08:07:25.041Z,62.08
2023-09-07T08:09:53.956Z,62.02
2023-09-07T08:12:22.915Z,61.39
2023-09-07T08:14:51.609Z,61.69
2023-09-07T08:17:22.049Z,62.18
2023-09-07T08:19:52.841Z,61.63
2023-09-07T08:22:21.999Z,61.90
2023-09-07T08:24:52.332Z,61.48
2023-09-07T08:27:22.133Z,60.95
2023-09-07T08:29:53.141Z,61.12
2023-09-07T08:32:22.740Z,60.75
2023-09-07T08:34:52.291Z,61.05
2023-09-07T08:37:24.436Z,61.08
2023-09-07T08:39:57.389Z,60.66
2023-09-07T08:42:26.204Z,61.33
2023-09-07T08:45:01.705Z,60.68
2023-09-07T08:47:33.487Z,59.73
2023-09-07T08:50:04.012Z,57.16
2023-09-07T08:52:33.782Z,57.22
2023-09-07T08:55:07.429Z,56.90
2023-09-07T08:57:36.210Z,58.94
2023-09-07T09:00:18.097Z,59.00
2023-09-07T09:05:22.048Z,59.51
2023-09-07T09:07:51.072Z,58.29
2023-09-07T09:10:19.947Z,56.90
2023-09-07T09:12:49.034Z,56.40
2023-09-07T09:15:17.769Z,55.41
2023-09-07T09:17:46.712Z,56.01
2023-09-07T09:20:28.368Z,55.46
2023-09-07T09:22:57.800Z,55.85
2023-09-07T09:25:28.298Z,55.97
2023-09-07T09:27:56.994Z,55.09
2023-09-07T09:30:26.936Z,54.80
2023-09-07T09:32:56.364Z,55.75
2023-09-07T09:35:26.184Z,56.21
2023-09-07T09:37:54.951Z,55.34
2023-09-07T09:40:24.615Z,54.03
2023-09-07T09:42:56.931Z,53.95
2023-09-07T09:45:28.249Z,54.14
2023-09-07T09:47:57.612Z,54.28
2023-09-07T09:50:27.060Z,54.20
2023-09-07T09:52:58.001Z,54.13
2023-09-07T09:55:27.650Z,52.55
2023-09-07T09:57:58.975Z,52.59
2023-09-07T10:00:31.485Z,52.80
2023-09-07T10:03:16.709Z,53.09
2023-09-07T10:05:48.888Z,53.39
2023-09-07T10:08:21.275Z,53.63
2023-09-07T10:10:57.986Z,52.92
2023-09-07T10:13:37.244Z,51.68
2023-09-07T10:16:09.495Z,52.31
2023-09-07T10:18:40.708Z,52.56
2023-09-07T10:21:09.670Z,52.74
2023-09-07T10:23:47.000Z,52.71
2023-09-07T10:26:19.144Z,52.71
2023-09-07T10:28:48.952Z,52.21
2023-09-07T10:31:33.721Z,51.38
2023-09-07T10:34:13.792Z,50.10
2023-09-07T10:36:43.511Z,51.00
2023-09-07T10:39:16.424Z,50.58
2023-09-07T10:41:47.555Z,50.61
2023-09-07T10:44:16.362Z,50.79
2023-09-07T10:46:45.275Z,51.08
2023-09-07T10:49:15.166Z,51.05
2023-09-07T10:51:47.385Z,51.36
2023-09-07T10:54:25.483Z,51.29
2023-09-07T10:56:59.182Z,50.71
2023-09-07T10:59:29.808Z,50.13
2023-09-07T11:02:06.666Z,50.88
2023-09-07T11:04:35.914Z,50.62
2023-09-07T11:07:06.084Z,49.62
2023-09-07T11:09:35.032Z,49.87
2023-09-07T11:12:07.522Z,49.22
2023-09-07T11:14:36.763Z,49.02
2023-09-07T11:17:05.691Z,49.44
2023-09-07T11:19:35.828Z,49.21
2023-09-07T11:22:05.771Z,48.26
2023-09-07T11:24:37.058Z,48.32
2023-09-07T11:27:06.173Z,47.77
2023-09-07T11:29:35.110Z,47.35
2023-09-07T11:32:12.679Z,48.03
2023-09-07T11:34:55.794Z,48.40
2023-09-07T11:37:27.619Z,49.13
2023-09-07T11:39:56.617Z,49.49
2023-09-07T11:42:25.691Z,49.21
2023-09-07T11:44:54.706Z,49.48
2023-09-07T11:47:23.688Z,48.10
2023-09-07T11:49:54.523Z,48.68
2023-09-07T11:52:23.607Z,48.44
2023-09-07T11:54:52.403Z,48.68
2023-09-07T11:57:21.230Z,49.08
2023-09-07T11:59:58.898Z,49.65
2023-09-07T12:02:28.875Z,49.22
2023-09-07T12:04:58.361Z,48.90
2023-09-07T12:07:27.355Z,48.37
2023-09-07T12:09:58.933Z,48.59
2023-09-07T12:12:27.958Z,48.79
2023-09-07T12:14:57.727Z,48.55
2023-09-07T12:17:26.687Z,48.43
2023-09-07T12:19:55.721Z,47.94
2023-09-07T12:22:24.689Z,48.08
2023-09-07T12:25:05.824Z,47.99
2023-09-07T12:27:51.592Z,47.56
2023-09-07T12:30:24.078Z,48.07
2023-09-07T12:32:53.549Z,47.36
2023-09-07T12:35:22.820Z,46.85
2023-09-07T12:37:51.862Z,44.40
2023-09-07T12:40:20.957Z,45.11
2023-09-07T12:42:50.228Z,45.04
2023-09-07T12:45:19.435Z,44.62
2023-09-07T12:47:48.311Z,44.61
2023-09-07T12:50:17.478Z,44.19
2023-09-07T12:52:48.071Z,44.56
2023-09-07T12:55:18.093Z,45.39
2023-09-07T12:57:47.228Z,45.19
2023-09-07T13:00:16.528Z,45.23
2023-09-07T13:02:46.264Z,45.91
2023-09-07T13:05:15.904Z,45.91
2023-09-07T13:07:45.672Z,45.64
2023-09-07T13:10:14.595Z,44.87
2023-09-07T13:12:43.380Z,44.46
2023-09-07T13:15:12.527Z,44.57
2023-09-07T13:17:41.426Z,44.77
2023-09-07T13:20:11.604Z,44.69
2023-09-07T13:22:43.189Z,45.35
2023-09-07T13:25:12.927Z,45.36
2023-09-07T13:27:41.804Z,44.23
2023-09-07T13:30:10.961Z,44.44
2023-09-07T13:32:40.401Z,44.58
2023-09-07T13:35:10.233Z,44.54
2023-09-07T13:37:39.194Z,44.31
2023-09-07T13:40:09.815Z,44.71
2023-09-07T13:42:40.255Z,45.22
2023-09-07T13:45:09.987Z,44.67
2023-09-07T13:47:40.521Z,44.99
2023-09-07T13:50:10.251Z,45.17
2023-09-07T13:52:38.955Z,45.37
2023-09-07T13:55:08.811Z,44.87
2023-09-07T13:57:37.888Z,44.69
2023-09-07T14:00:10.155Z,44.99
2023-09-07T14:02:39.556Z,44.50
2023-09-07T14:05:12.537Z,44.38
2023-09-07T14:07:43.018Z,43.93
2023-09-07T14:10:11.875Z,43.95
2023-09-07T14:12:40.968Z,43.98
2023-09-07T14:15:10.470Z,43.98
2023-09-07T14:17:39.300Z,44.69
2023-09-07T14:20:09.221Z,44.51
2023-09-07T14:22:38.266Z,44.63
2023-09-07T14:25:09.011Z,44.73
2023-09-07T14:27:37.846Z,44.46
2023-09-07T14:30:08.130Z,44.78
2023-09-07T14:32:37.104Z,44.56
2023-09-07T14:35:06.849Z,44.51
2023-09-07T14:37:35.727Z,44.30
2023-09-07T14:40:05.188Z,44.51
2023-09-07T14:42:34.021Z,43.65
2023-09-07T14:45:03.336Z,43.58
2023-09-07T14:47:32.337Z,43.87
2023-09-07T14:50:01.430Z,44.34
2023-09-07T14:52:30.341Z,44.73
2023-09-07T14:54:59.376Z,44.67
2023-09-07T14:57:28.560Z,44.96
2023-09-07T14:59:58.061Z,44.42
2023-09-07T15:02:27.263Z,43.80
2023-09-07T15:04:56.940Z,43.36
2023-09-07T15:07:26.442Z,43.64
2023-09-07T15:09:55.645Z,43.30
2023-09-07T15:12:24.749Z,43.98
2023-09-07T15:14:54.519Z,43.89
2023-09-07T15:17:23.448Z,43.96
2023-09-07T15:19:52.909Z,43.56
2023-09-07T15:22:21.741Z,43.87
2023-09-07T15:24:51.129Z,43.85
2023-09-07T15:27:20.485Z,44.05
2023-09-07T15:29:49.558Z,44.10
2023-09-07T15:32:18.607Z,44.11
2023-09-07T15:34:47.779Z,43.28
2023-09-07T15:37:18.260Z,43.45
2023-09-07T15:39:47.984Z,43.63
2023-09-07T15:42:17.566Z,43.86
2023-09-07T15:44:48.148Z,44.13
2023-09-07T15:47:18.424Z,44.34
2023-09-07T15:49:50.488Z,44.57
2023-09-07T15:52:22.323Z,44.43
2023-09-07T15:54:51.932Z,44.12
2023-09-07T15:57:23.090Z,44.56
2023-09-07T15:59:53.018Z,44.76
2023-09-07T16:02:23.365Z,45.09
2023-09-07T16:04:54.468Z,45.31
2023-09-07T16:07:24.997Z,45.62
2023-09-07T16:09:55.007Z,45.51
2023-09-07T16:12:24.548Z,45.73
2023-09-07T16:14:55.035Z,45.81
2023-09-07T16:17:24.679Z,46.43
2023-09-07T16:19:54.418Z,46.22
2023-09-07T16:22:23.936Z,46.48
2023-09-07T16:24:53.495Z,46.37
2023-09-07T16:27:22.741Z,46.08
2023-09-07T16:29:51.904Z,46.22
2023-09-07T16:32:21.604Z,46.63
2023-09-07T16:34:51.272Z,46.76
2023-09-07T16:37:26.544Z,47.22
2023-09-07T16:39:56.864Z,47.35
2023-09-07T16:42:26.756Z,47.78
2023-09-07T16:44:56.638Z,47.92
2023-09-07T16:47:26.696Z,48.36
2023-09-07T16:49:56.678Z,49.10
2023-09-07T16:52:33.123Z,48.82
2023-09-07T16:55:02.637Z,48.85
2023-09-07T16:57:36.229Z,49.30
2023-09-07T17:00:07.143Z,50.12
2023-09-07T17:02:37.355Z,49.94
2023-09-07T17:05:07.462Z,50.11
2023-09-07T17:07:37.391Z,50.25
2023-09-07T17:10:07.612Z,50.62
2023-09-07T17:12:36.531Z,51.03
2023-09-07T17:15:07.051Z,51.24
2023-09-07T17:17:36.377Z,51.37
2023-09-07T17:20:07.616Z,51.68
2023-09-07T17:22:37.386Z,51.58
2023-09-07T17:25:08.037Z,52.17
2023-09-07T17:27:37.781Z,52.26
2023-09-07T17:30:09.278Z,52.60
2023-09-07T17:32:40.386Z,52.84
2023-09-07T17:35:10.896Z,53.38
2023-09-07T17:37:41.874Z,53.45
2023-09-07T17:40:11.920Z,53.99
2023-09-07T17:42:42.976Z,54.44
2023-09-07T17:45:12.094Z,54.74
2023-09-07T17:47:42.908Z,54.85
2023-09-07T17:50:15.825Z,55.09
2023-09-07T17:52:45.811Z,55.11
2023-09-07T17:55:15.260Z,55.34
2023-09-07T17:57:44.911Z,55.63
2023-09-07T18:00:15.496Z,55.81
2023-09-07T18:02:44.888Z,55.95
2023-09-07T18:05:20.221Z,56.04
2023-09-07T18:07:53.732Z,56.15
2023-09-07T18:10:25.209Z,56.38
2023-09-07T18:12:55.389Z,56.70
2023-09-07T18:15:25.432Z,57.07
2023-09-07T18:17:56.652Z,56.94
2023-09-07T18:20:31.163Z,57.15
2023-09-07T18:23:02.472Z,57.44
2023-09-07T18:25:34.391Z,57.52
2023-09-07T18:28:05.664Z,57.77
2023-09-07T18:30:37.033Z,58.06
2023-09-07T18:33:07.584Z,58.10
2023-09-07T18:35:37.247Z,58.28
2023-09-07T18:38:09.729Z,58.69
2023-09-07T18:40:40.167Z,58.62
2023-09-07T18:43:10.570Z,59.21
2023-09-07T18:45:41.002Z,59.10
2023-09-07T18:48:10.834Z,59.39
2023-09-07T18:50:40.077Z,59.65
2023-09-07T18:53:12.779Z,59.66
2023-09-07T18:55:43.852Z,59.55
2023-09-07T18:58:14.571Z,60.03
2023-09-07T19:00:46.246Z,59.99
2023-09-07T19:03:19.103Z,60.62
2023-09-07T19:05:49.791Z,60.55
2023-09-07T19:08:20.087Z,60.90
2023-09-07T19:10:50.321Z,60.97
2023-09-07T19:13:20.857Z,60.95
2023-09-07T19:15:57.080Z,61.02
2023-09-07T19:18:29.875Z,61.14
2023-09-07T19:21:12.792Z,61.46
2023-09-07T19:23:53.899Z,61.62
2023-09-07T19:26:40.063Z,61.77
2023-09-07T19:29:13.115Z,62.07
2023-09-07T19:31:44.720Z,61.25
2023-09-07T19:34:14.858Z,56.46
2023-09-07T19:36:45.334Z,55.37
2023-09-07T19:39:16.495Z,56.57
2023-09-07T19:41:47.980Z,57.79
2023-09-07T19:44:18.638Z,59.22
2023-09-07T19:46:48.512Z,60.00
2023-09-07T19:49:22.478Z,61.05
2023-09-07T19:51:53.192Z,61.95
2023-09-07T19:54:27.804Z,62.44
2023-09-07T19:56:58.173Z,61.97
2023-09-07T19:59:29.400Z,60.42
2023-09-07T20:02:02.892Z,60.09
2023-09-07T20:04:35.282Z,59.98
2023-09-07T20:07:06.204Z,58.91
2023-09-07T20:09:37.470Z,59.14
2023-09-07T20:12:09.733Z,60.22
2023-09-07T20:14:39.864Z,61.48
2023-09-07T20:17:13.062Z,62.21
2023-09-07T20:19:47.724Z,62.63
2023-09-07T20:22:17.617Z,60.86
2023-09-07T20:24:46.895Z,60.02
2023-09-07T20:27:15.772Z,60.14
2023-09-07T20:29:46.283Z,58.80
2023-09-07T20:32:16.006Z,59.15
2023-09-07T20:34:46.337Z,60.13
2023-09-07T20:37:15.262Z,61.06
2023-09-07T20:39:45.198Z,62.07
2023-09-07T20:42:16.898Z,63.09
2023-09-07T20:44:46.932Z,61.53
2023-09-07T20:47:16.128Z,60.81
2023-09-07T20:49:46.356Z,60.60
2023-09-07T20:52:16.471Z,59.08
2023-09-07T20:54:46.344Z,59.35
2023-09-07T20:57:15.450Z,60.76
2023-09-07T20:59:45.184Z,62.53
2023-09-07T21:02:14.053Z,62.47
2023-09-07T21:04:43.073Z,61.03
2023-09-07T21:07:12.270Z,60.83
2023-09-07T21:09:41.318Z,61.24
2023-09-07T21:12:10.499Z,58.42
2023-09-07T21:14:39.257Z,58.85
2023-09-07T21:17:10.223Z,60.71
2023-09-07T21:19:39.037Z,62.09
2023-09-07T21:22:07.974Z,63.29
2023-09-07T21:24:37.197Z,62.39
2023-09-07T21:27:06.134Z,62.23
2023-09-07T21:29:35.033Z,60.71
2023-09-07T21:32:04.066Z,59.65
2023-09-07T21:34:32.877Z,60.04
2023-09-07T21:37:02.146Z,61.03
2023-09-07T21:39:35.135Z,61.93
2023-09-07T21:42:04.843Z,62.95
2023-09-07T21:44:34.054Z,62.77
2023-09-07T21:47:02.919Z,62.85
2023-09-07T21:49:31.833Z,63.25
2023-09-07T21:52:00.659Z,63.79
2023-09-07T21:54:30.130Z,63.44
2023-09-07T21:56:59.582Z,64.26
